Time,TemperatureF,DewpointF,PressureIn,WindDirection,WindDirectionDegrees,WindSpeedMPH,WindSpeedGustMPH,Humidity,HourlyPrecipIn,Conditions,Clouds,dailyrainin,SoftwareType,DateUTC
2013-02-18 00:08:00,26.6,23.0,30.24,NNW,342,0.0,0.0,86,0.00,,,0.00,weatherlink.com 1.10,2013-02-18 06:08:00,
2013-02-18 00:23:00,26.5,23.0,30.24,NNW,342,0.0,0.0,86,0.00,,,0.00,weatherlink.com 1.10,2013-02-18 06:23:00,
2013-02-18 00:38:00,26.3,23.0,30.24,NNW,342,0.0,0.0,87,0.00,,,0.00,weatherlink.com 1.10,2013-02-18 06:38:00,
2013-02-18 00:53:00,26.2,23.0,30.24,NNW,342,0.0,0.0,88,0.00,,,0.00,weatherlink.com 1.10,2013-02-18 06:53:00,
2013-02-18 01:08:00,26.1,23.0,30.24,NNW,342,0.0,0.0,88,0.00,,,0.00,weatherlink.com 1.10,2013-02-18 07:08:00,
2013-02-18 01:23:00,26.0,23.0,30.23,NNW,342,0.0,0.0,88,0.00,,,0.00,weatherlink.com 1.10,2013-02-18 07:23:00,
2013-02-18 01:38:00,25.9,23.0,30.23,NNW,342,0.0,0.0,88,0.00,,,0.00,weatherlink.com 1.10,2013-02-18 07:38:00,
2013-02-18 01:53:00,25.7,23.0,30.23,NNW,342,0.0,0.0,88,0.00,,,0.00,weatherlink.com 1.10,2013-02-18 07:53:00,
2013-02-18 02:08:00,25.7,23.0,30.23,NNW,342,0.0,0.0,89,0.00,,,0.00,weatherlink.com 1.10,2013-02-18 08:08:00,
2013-02-18 02:23:00,25.6,23.0,30.24,NNW,342,0.0,0.0,89,0.00,,,0.00,weatherlink.com 1.10,2013-02-18 08:23:00,
2013-02-18 02:38:00,25.5,23.0,30.24,NNW,342,0.0,0.0,90,0.00,,,0.00,weatherlink.com 1.10,2013-02-18 08:38:00,
2013-02-18 02:53:00,25.4,23.0,30.23,NNW,342,0.0,0.0,90,0.00,,,0.00,weatherlink.com 1.10,2013-02-18 08:53:00,
2013-02-18 03:08:00,25.2,23.0,30.23,NNW,342,0.0,0.0,90,0.00,,,0.00,weatherlink.com 1.10,2013-02-18 09:08:00,
2013-02-18 03:23:00,25.1,23.0,30.24,NNW,342,0.0,0.0,90,0.00,,,0.00,weatherlink.com 1.10,2013-02-18 09:23:00,
2013-02-18 03:38:00,25.0,23.0,30.23,NNW,342,0.0,0.0,90,0.00,,,0.00,weatherlink.com 1.10,2013-02-18 09:38:00,
2013-02-18 03:53:00,24.9,23.0,30.24,NNW,342,0.0,0.0,91,0.00,,,0.00,weatherlink.com 1.10,2013-02-18 09:53:00,
2013-02-18 04:08:00,24.9,23.0,30.24,NNW,342,0.0,0.0,91,0.00,,,0.00,weatherlink.com 1.10,2013-02-18 10:08:00,
2013-02-18 04:23:00,24.8,23.0,30.24,NNW,342,0.0,0.0,91,0.00,,,0.00,weatherlink.com 1.10,2013-02-18 10:23:00,
2013-02-18 04:38:00,24.8,23.0,30.25,NNW,342,0.0,0.0,91,0.00,,,0.00,weatherlink.com 1.10,2013-02-18 10:38:00,
2013-02-18 04:53:00,24.7,23.0,30.25,NNW,342,0.0,0.0,91,0.00,,,0.00,weatherlink.com 1.10,2013-02-18 10:53:00,
2013-02-18 05:08:00,24.7,23.0,30.25,NNW,342,0.0,0.0,92,0.00,,,0.00,weatherlink.com 1.10,2013-02-18 11:08:00,
2013-02-18 05:23:00,24.7,23.0,30.25,NNW,342,0.0,0.0,92,0.00,,,0.00,weatherlink.com 1.10,2013-02-18 11:23:00,
2013-02-18 05:38:00,24.7,23.0,30.25,NNW,342,0.0,0.0,92,0.00,,,0.00,weatherlink.com 1.10,2013-02-18 11:38:00,
2013-02-18 06:08:00,24.6,23.0,30.26,NNW,342,0.0,0.0,92,0.00,,,0.00,weatherlink.com 1.10,2013-02-18 12:08:00,
2013-02-18 06:38:00,24.7,23.0,30.27,NNW,342,0.0,0.0,92,0.00,,,0.00,weatherlink.com 1.10,2013-02-18 12:38:00,
2013-02-18 06:53:00,24.9,23.0,30.27,NNW,342,0.0,0.0,93,0.00,,,0.00,weatherlink.com 1.10,2013-02-18 12:53:00,
2013-02-18 07:08:00,25.2,24.0,30.27,NNW,342,0.0,0.0,93,0.00,,,0.00,weatherlink.com 1.10,2013-02-18 13:08:00,
2013-02-18 07:24:00,25.8,24.0,30.27,NNW,342,0.0,0.0,93,0.00,,,0.00,weatherlink.com 1.10,2013-02-18 13:24:00,
2013-02-18 07:38:00,26.8,25.0,30.28,NNW,342,0.0,0.0,94,0.00,,,0.00,weatherlink.com 1.10,2013-02-18 13:38:00,
2013-02-18 07:53:00,28.1,27.0,30.28,NNW,342,0.0,0.0,94,0.00,,,0.00,weatherlink.com 1.10,2013-02-18 13:53:00,
2013-02-18 08:08:00,29.6,28.0,30.29,SW,215,0.0,1.0,95,0.00,,,0.00,weatherlink.com 1.10,2013-02-18 14:08:00,
2013-02-18 08:23:00,31.7,29.0,30.29,SSE,167,0.0,2.0,91,0.00,,,0.00,weatherlink.com 1.10,2013-02-18 14:23:00,
2013-02-18 08:39:00,34.4,28.0,30.29,SSW,210,0.0,1.0,78,0.00,,,0.00,weatherlink.com 1.10,2013-02-18 14:39:00,
2013-02-18 08:54:00,37.6,30.0,30.30,SW,231,0.0,1.0,74,0.00,,,0.00,weatherlink.com 1.10,2013-02-18 14:54:00,
2013-02-18 09:09:00,40.1,31.0,30.29,South,180,2.0,4.0,69,0.00,,,0.00,weatherlink.com 1.10,2013-02-18 15:09:00,
2013-02-18 09:24:00,42.1,30.0,30.29,SE,141,0.0,5.0,62,0.00,,,0.00,weatherlink.com 1.10,2013-02-18 15:24:00,
2013-02-18 09:39:00,43.5,31.0,30.30,SSW,194,0.0,5.0,61,0.00,,,0.00,weatherlink.com 1.10,2013-02-18 15:39:00,
2013-02-18 09:54:00,44.9,31.0,30.29,South,184,2.0,6.0,59,0.00,,,0.00,weatherlink.com 1.10,2013-02-18 15:54:00,
2013-02-18 10:09:00,46.0,32.0,30.29,West,271,1.0,6.0,59,0.00,,,0.00,weatherlink.com 1.10,2013-02-18 16:09:00,
2013-02-18 10:24:00,47.9,34.0,30.28,SSW,194,0.0,8.0,58,0.00,,,0.00,weatherlink.com 1.10,2013-02-18 16:24:00,
2013-02-18 10:39:00,49.6,33.0,30.28,South,178,0.0,7.0,54,0.00,,,0.00,weatherlink.com 1.10,2013-02-18 16:39:00,
2013-02-18 10:54:00,51.3,35.0,30.27,SW,223,0.0,9.0,55,0.00,,,0.00,weatherlink.com 1.10,2013-02-18 16:54:00,
2013-02-18 11:09:00,52.8,36.0,30.26,South,186,6.0,7.0,53,0.00,,,0.00,weatherlink.com 1.10,2013-02-18 17:09:00,
2013-02-18 11:24:00,54.0,35.0,30.25,SE,126,0.0,7.0,49,0.00,,,0.00,weatherlink.com 1.10,2013-02-18 17:24:00,
2013-02-18 11:39:00,55.1,35.0,30.24,SW,216,2.0,8.0,47,0.00,,,0.00,weatherlink.com 1.10,2013-02-18 17:39:00,
2013-02-18 11:54:00,55.5,35.0,30.23,South,190,2.0,7.0,46,0.00,,,0.00,weatherlink.com 1.10,2013-02-18 17:54:00,
2013-02-18 12:09:00,56.1,35.0,30.21,West,261,3.0,7.0,45,0.00,,,0.00,weatherlink.com 1.10,2013-02-18 18:09:00,
2013-02-18 12:24:00,56.6,35.0,30.21,SW,219,0.0,7.0,45,0.00,,,0.00,weatherlink.com 1.10,2013-02-18 18:24:00,
2013-02-18 12:40:00,57.1,34.0,30.19,West,267,1.0,7.0,42,0.00,,,0.00,weatherlink.com 1.10,2013-02-18 18:40:00,
2013-02-18 12:55:00,58.3,34.0,30.18,WSW,249,0.0,7.0,41,0.00,,,0.00,weatherlink.com 1.10,2013-02-18 18:55:00,
2013-02-18 13:10:00,58.4,35.0,30.17,South,186,2.0,9.0,41,0.00,,,0.00,weatherlink.com 1.10,2013-02-18 19:10:00,
2013-02-18 13:25:00,59.2,35.0,30.16,SW,219,0.0,8.0,40,0.00,,,0.00,weatherlink.com 1.10,2013-02-18 19:25:00,
2013-02-18 13:40:00,59.9,34.0,30.15,West,281,1.0,9.0,38,0.00,,,0.00,weatherlink.com 1.10,2013-02-18 19:40:00,
2013-02-18 13:55:00,60.2,34.0,30.14,West,261,0.0,5.0,37,0.00,,,0.00,weatherlink.com 1.10,2013-02-18 19:55:00,
2013-02-18 14:10:00,61.2,35.0,30.13,WSW,250,0.0,7.0,37,0.00,,,0.00,weatherlink.com 1.10,2013-02-18 20:10:00,
2013-02-18 14:25:00,61.2,34.0,30.12,WSW,245,2.0,10.0,36,0.00,,,0.00,weatherlink.com 1.10,2013-02-18 20:25:00,
2013-02-18 14:40:00,61.0,34.0,30.11,SSE,167,3.0,11.0,36,0.00,,,0.00,weatherlink.com 1.10,2013-02-18 20:40:00,
2013-02-18 14:55:00,60.8,34.0,30.11,South,188,5.0,11.0,37,0.00,,,0.00,weatherlink.com 1.10,2013-02-18 20:55:00,
2013-02-18 15:10:00,60.4,34.0,30.11,ESE,119,0.0,11.0,37,0.00,,,0.00,weatherlink.com 1.10,2013-02-18 21:10:00,
2013-02-18 15:40:00,60.2,34.0,30.09,SSE,159,2.0,9.0,38,0.00,,,0.00,weatherlink.com 1.10,2013-02-18 21:40:00,
2013-02-18 15:55:00,59.8,35.0,30.09,WSW,254,0.0,11.0,39,0.00,,,0.00,weatherlink.com 1.10,2013-02-18 21:55:00,
2013-02-18 16:10:00,59.3,33.0,30.08,SSW,202,0.0,4.0,38,0.00,,,0.00,weatherlink.com 1.10,2013-02-18 22:10:00,
2013-02-18 16:25:00,58.6,34.0,30.08,SW,227,0.0,14.0,39,0.00,,,0.00,weatherlink.com 1.10,2013-02-18 22:25:00,
2013-02-18 16:40:00,57.6,33.0,30.07,South,189,0.0,11.0,40,0.00,,,0.00,weatherlink.com 1.10,2013-02-18 22:40:00,
2013-02-18 16:55:00,56.6,33.0,30.06,SE,135,0.0,10.0,41,0.00,,,0.00,weatherlink.com 1.10,2013-02-18 22:55:00,
2013-02-18 17:10:00,56.1,32.0,30.06,South,190,0.0,13.0,40,0.00,,,0.00,weatherlink.com 1.10,2013-02-18 23:10:00,
2013-02-18 17:25:00,54.9,34.0,30.05,SSW,194,0.0,3.0,45,0.00,,,0.00,weatherlink.com 1.10,2013-02-18 23:25:00,
2013-02-18 17:40:00,53.5,32.0,30.05,West,268,0.0,8.0,44,0.00,,,0.00,weatherlink.com 1.10,2013-02-18 23:40:00,
2013-02-18 17:55:00,53.4,33.0,30.05,SSW,209,0.0,11.0,47,0.00,,,0.00,weatherlink.com 1.10,2013-02-18 23:55:00,
2013-02-18 18:10:00,53.8,32.0,30.05,SW,215,0.0,6.0,43,0.00,,,0.00,weatherlink.com 1.10,2013-02-19 00:10:00,
2013-02-18 18:25:00,53.0,33.0,30.05,SSW,212,0.0,4.0,46,0.00,,,0.00,weatherlink.com 1.10,2013-02-19 00:25:00,
2013-02-18 18:41:00,52.1,32.0,30.05,South,186,0.0,6.0,46,0.00,,,0.00,weatherlink.com 1.10,2013-02-19 00:41:00,
2013-02-18 18:55:00,52.0,33.0,30.05,West,268,0.0,7.0,48,0.00,,,0.00,weatherlink.com 1.10,2013-02-19 00:55:00,
2013-02-18 19:10:00,51.4,32.0,30.05,South,191,3.0,4.0,48,0.00,,,0.00,weatherlink.com 1.10,2013-02-19 01:10:00,
2013-02-18 19:25:00,51.8,32.0,30.04,SSW,198,0.0,5.0,48,0.00,,,0.00,weatherlink.com 1.10,2013-02-19 01:25:00,
2013-02-18 19:40:00,52.3,33.0,30.04,WNW,285,0.0,6.0,48,0.00,,,0.00,weatherlink.com 1.10,2013-02-19 01:40:00,
2013-02-18 19:56:00,52.1,32.0,30.04,SW,219,1.0,7.0,47,0.00,,,0.00,weatherlink.com 1.10,2013-02-19 01:56:00,
2013-02-18 20:11:00,52.2,34.0,30.03,West,271,1.0,6.0,50,0.00,,,0.00,weatherlink.com 1.10,2013-02-19 02:11:00,
2013-02-18 20:26:00,52.3,32.0,30.03,SE,136,0.0,6.0,47,0.00,,,0.00,weatherlink.com 1.10,2013-02-19 02:26:00,
2013-02-18 20:41:00,52.8,33.0,30.03,WSW,238,1.0,8.0,47,0.00,,,0.00,weatherlink.com 1.10,2013-02-19 02:41:00,
2013-02-18 20:56:00,52.6,33.0,30.03,SW,225,1.0,9.0,47,0.00,,,0.00,weatherlink.com 1.10,2013-02-19 02:56:00,
2013-02-18 21:11:00,52.4,34.0,30.02,SSW,195,1.0,6.0,50,0.00,,,0.00,weatherlink.com 1.10,2013-02-19 03:11:00,
2013-02-18 21:26:00,52.2,33.0,30.02,SSE,161,3.0,10.0,49,0.00,,,0.00,weatherlink.com 1.10,2013-02-19 03:26:00,
2013-02-18 21:41:00,51.8,32.0,30.01,SSW,208,5.0,8.0,48,0.00,,,0.00,weatherlink.com 1.10,2013-02-19 03:41:00,
2013-02-18 22:11:00,51.3,33.0,30.00,West,277,0.0,7.0,49,0.00,,,0.00,weatherlink.com 1.10,2013-02-19 04:11:00,
2013-02-18 22:26:00,51.0,32.0,30.00,SW,215,1.0,6.0,49,0.00,,,0.00,weatherlink.com 1.10,2013-02-19 04:26:00,
2013-02-18 22:41:00,51.3,31.0,29.98,South,173,1.0,10.0,46,0.00,,,0.00,weatherlink.com 1.10,2013-02-19 04:41:00,
2013-02-18 22:56:00,51.4,32.0,29.97,SSE,166,1.0,8.0,47,0.00,,,0.00,weatherlink.com 1.10,2013-02-19 04:56:00,
2013-02-18 23:11:00,51.4,32.0,29.96,WSW,248,0.0,12.0,47,0.00,,,0.00,weatherlink.com 1.10,2013-02-19 05:11:00,
2013-02-18 23:26:00,51.3,33.0,29.96,WSW,241,0.0,7.0,50,0.00,,,0.00,weatherlink.com 1.10,2013-02-19 05:26:00,
2013-02-18 23:41:00,51.3,32.0,29.95,SW,222,1.0,10.0,48,0.00,,,0.00,weatherlink.com 1.10,2013-02-19 05:41:00,
2013-02-18 23:56:00,51.2,32.0,29.94,WSW,243,1.0,9.0,48,0.00,,,0.00,weatherlink.com 1.10,2013-02-19 05:56:00,